sensor_id;sensor_type;location;lat;lon;timestamp;temperature;humidity
54986;DHT22;40885;53.070;6.228;2022-07-10T00:00:40;14.40;99.90
54986;DHT22;40885;53.070;6.228;2022-07-10T00:03:06;14.40;99.90
54986;DHT22;40885;53.070;6.228;2022-07-10T00:05:32;14.30;99.90
54986;DHT22;40885;53.070;6.228;2022-07-10T00:08:00;14.30;99.90
54986;DHT22;40885;53.070;6.228;2022-07-10T00:10:26;14.30;99.90
54986;DHT22;40885;53.070;6.228;2022-07-10T00:12:57;14.30;99.90
54986;DHT22;40885;53.070;6.228;2022-07-10T00:15:23;14.20;99.90
54986;DHT22;40885;53.070;6.228;2022-07-10T00:17:48;14.20;99.90
54986;DHT22;40885;53.070;6.228;2022-07-10T00:20:15;14.10;99.90
54986;DHT22;40885;53.070;6.228;2022-07-10T00:22:41;14.10;99.90
54986;DHT22;40885;53.070;6.228;2022-07-10T00:25:10;14.00;99.90
54986;DHT22;40885;53.070;6.228;2022-07-10T00:27:36;14.00;99.90
54986;DHT22;40885;53.070;6.228;2022-07-10T00:30:03;13.90;99.90
54986;DHT22;40885;53.070;6.228;2022-07-10T00:32:29;13.90;99.90
54986;DHT22;40885;53.070;6.228;2022-07-10T00:34:55;13.80;99.90
54986;DHT22;40885;53.070;6.228;2022-07-10T00:37:21;13.80;99.90
54986;DHT22;40885;53.070;6.228;2022-07-10T00:39:47;13.80;99.90
54986;DHT22;40885;53.070;6.228;2022-07-10T00:42:14;13.80;99.90
54986;DHT22;40885;53.070;6.228;2022-07-10T00:44:41;13.70;99.90
54986;DHT22;40885;53.070;6.228;2022-07-10T00:47:08;13.70;99.90
54986;DHT22;40885;53.070;6.228;2022-07-10T00:49:35;13.60;99.90
54986;DHT22;40885;53.070;6.228;2022-07-10T00:52:04;13.60;99.90
54986;DHT22;40885;53.070;6.228;2022-07-10T00:54:32;13.60;99.90
54986;DHT22;40885;53.070;6.228;2022-07-10T00:56:58;13.60;99.90
54986;DHT22;40885;53.070;6.228;2022-07-10T00:59:25;13.60;99.90
54986;DHT22;40885;53.070;6.228;2022-07-10T01:01:51;13.60;99.90
54986;DHT22;40885;53.070;6.228;2022-07-10T01:04:18;13.60;99.90
54986;DHT22;40885;53.070;6.228;2022-07-10T01:06:44;13.60;99.90
54986;DHT22;40885;53.070;6.228;2022-07-10T01:09:10;13.60;99.90
54986;DHT22;40885;53.070;6.228;2022-07-10T01:11:37;13.60;99.90
54986;DHT22;40885;53.070;6.228;2022-07-10T01:14:16;13.70;99.90
54986;DHT22;40885;53.070;6.228;2022-07-10T01:16:42;13.70;99.90
54986;DHT22;40885;53.070;6.228;2022-07-10T01:19:08;13.60;99.90
54986;DHT22;40885;53.070;6.228;2022-07-10T01:21:36;13.70;99.90
54986;DHT22;40885;53.070;6.228;2022-07-10T01:24:17;13.70;99.90
54986;DHT22;40885;53.070;6.228;2022-07-10T01:26:43;13.70;99.90
54986;DHT22;40885;53.070;6.228;2022-07-10T01:29:11;13.70;99.90
54986;DHT22;40885;53.070;6.228;2022-07-10T01:31:55;13.60;99.90
54986;DHT22;40885;53.070;6.228;2022-07-10T01:34:22;13.70;99.90
54986;DHT22;40885;53.070;6.228;2022-07-10T01:36:48;13.50;99.90
54986;DHT22;40885;53.070;6.228;2022-07-10T01:39:16;13.50;99.90
54986;DHT22;40885;53.070;6.228;2022-07-10T01:41:57;13.50;99.90
54986;DHT22;40885;53.070;6.228;2022-07-10T01:44:28;13.40;99.90
54986;DHT22;40885;53.070;6.228;2022-07-10T01:46:54;13.40;99.90
54986;DHT22;40885;53.070;6.228;2022-07-10T01:49:38;13.30;99.90
54986;DHT22;40885;53.070;6.228;2022-07-10T01:52:04;13.40;99.90
54986;DHT22;40885;53.070;6.228;2022-07-10T01:54:50;13.30;99.90
54986;DHT22;40885;53.070;6.228;2022-07-10T01:57:16;13.30;99.90
54986;DHT22;40885;53.070;6.228;2022-07-10T01:59:42;13.30;99.90
54986;DHT22;40885;53.070;6.228;2022-07-10T02:02:25;13.30;99.90
54986;DHT22;40885;53.070;6.228;2022-07-10T02:04:51;13.20;99.90
54986;DHT22;40885;53.070;6.228;2022-07-10T02:07:20;13.30;99.90
54986;DHT22;40885;53.070;6.228;2022-07-10T02:09:47;13.40;99.90
54986;DHT22;40885;53.070;6.228;2022-07-10T02:12:14;13.40;99.90
54986;DHT22;40885;53.070;6.228;2022-07-10T02:14:41;13.40;99.90
54986;DHT22;40885;53.070;6.228;2022-07-10T02:17:07;13.40;99.90
54986;DHT22;40885;53.070;6.228;2022-07-10T02:19:34;13.40;99.90
54986;DHT22;40885;53.070;6.228;2022-07-10T02:22:03;13.40;99.90
54986;DHT22;40885;53.070;6.228;2022-07-10T02:24:28;13.20;99.90
54986;DHT22;40885;53.070;6.228;2022-07-10T02:26:54;13.40;99.90
54986;DHT22;40885;53.070;6.228;2022-07-10T02:29:21;13.30;99.90
54986;DHT22;40885;53.070;6.228;2022-07-10T02:31:48;13.20;99.90
54986;DHT22;40885;53.070;6.228;2022-07-10T02:34:33;13.30;99.90
54986;DHT22;40885;53.070;6.228;2022-07-10T02:36:59;13.20;99.90
54986;DHT22;40885;53.070;6.228;2022-07-10T02:39:24;13.20;99.90
54986;DHT22;40885;53.070;6.228;2022-07-10T02:41:56;13.20;99.90
54986;DHT22;40885;53.070;6.228;2022-07-10T02:44:22;13.20;99.90
54986;DHT22;40885;53.070;6.228;2022-07-10T02:46:48;13.30;99.90
54986;DHT22;40885;53.070;6.228;2022-07-10T02:49:14;13.20;99.90
54986;DHT22;40885;53.070;6.228;2022-07-10T02:51:58;13.30;99.90
54986;DHT22;40885;53.070;6.228;2022-07-10T02:54:24;13.30;99.90
54986;DHT22;40885;53.070;6.228;2022-07-10T02:56:50;13.30;99.90
54986;DHT22;40885;53.070;6.228;2022-07-10T02:59:16;13.30;99.90
54986;DHT22;40885;53.070;6.228;2022-07-10T03:01:42;13.30;99.90
54986;DHT22;40885;53.070;6.228;2022-07-10T03:04:08;13.40;99.90
54986;DHT22;40885;53.070;6.228;2022-07-10T03:06:34;13.40;99.90
54986;DHT22;40885;53.070;6.228;2022-07-10T03:09:05;13.40;99.90
54986;DHT22;40885;53.070;6.228;2022-07-10T03:11:31;13.40;99.90
54986;DHT22;40885;53.070;6.228;2022-07-10T03:13:57;13.50;99.90
54986;DHT22;40885;53.070;6.228;2022-07-10T03:16:44;13.40;99.90
54986;DHT22;40885;53.070;6.228;2022-07-10T03:19:16;12.80;99.90
54986;DHT22;40885;53.070;6.228;2022-07-10T03:21:42;13.50;99.90
54986;DHT22;40885;53.070;6.228;2022-07-10T03:24:23;13.60;99.90
54986;DHT22;40885;53.070;6.228;2022-07-10T03:26:49;13.60;99.90
54986;DHT22;40885;53.070;6.228;2022-07-10T03:29:14;13.60;99.90
54986;DHT22;40885;53.070;6.228;2022-07-10T03:31:40;13.60;99.90
54986;DHT22;40885;53.070;6.228;2022-07-10T03:34:22;13.60;99.90
54986;DHT22;40885;53.070;6.228;2022-07-10T03:37:08;13.60;99.90
54986;DHT22;40885;53.070;6.228;2022-07-10T03:39:34;13.70;99.90
54986;DHT22;40885;53.070;6.228;2022-07-10T03:42:11;13.80;99.90
54986;DHT22;40885;53.070;6.228;2022-07-10T03:44:40;13.80;99.90
54986;DHT22;40885;53.070;6.228;2022-07-10T03:47:12;13.70;99.90
54986;DHT22;40885;53.070;6.228;2022-07-10T03:49:38;13.80;99.90
54986;DHT22;40885;53.070;6.228;2022-07-10T03:52:04;13.80;99.90
54986;DHT22;40885;53.070;6.228;2022-07-10T03:54:31;13.80;99.90
54986;DHT22;40885;53.070;6.228;2022-07-10T03:56:57;13.90;99.90
54986;DHT22;40885;53.070;6.228;2022-07-10T03:59:44;14.00;99.90
54986;DHT22;40885;53.070;6.228;2022-07-10T04:02:10;13.90;99.90
54986;DHT22;40885;53.070;6.228;2022-07-10T04:04:36;13.80;99.90
54986;DHT22;40885;53.070;6.228;2022-07-10T04:07:02;13.90;99.90
54986;DHT22;40885;53.070;6.228;2022-07-10T04:09:29;13.90;99.90
54986;DHT22;40885;53.070;6.228;2022-07-10T04:12:08;14.00;99.90
54986;DHT22;40885;53.070;6.228;2022-07-10T04:14:34;14.00;99.90
54986;DHT22;40885;53.070;6.228;2022-07-10T04:17:01;14.00;99.90
54986;DHT22;40885;53.070;6.228;2022-07-10T04:19:42;14.00;99.90
54986;DHT22;40885;53.070;6.228;2022-07-10T04:22:17;14.20;99.90
54986;DHT22;40885;53.070;6.228;2022-07-10T04:24:43;14.10;99.90
54986;DHT22;40885;53.070;6.228;2022-07-10T04:27:08;14.20;99.90
54986;DHT22;40885;53.070;6.228;2022-07-10T04:29:34;14.30;99.90
54986;DHT22;40885;53.070;6.228;2022-07-10T04:32:00;14.30;99.90
54986;DHT22;40885;53.070;6.228;2022-07-10T04:34:25;14.30;99.90
54986;DHT22;40885;53.070;6.228;2022-07-10T04:36:51;14.30;99.90
54986;DHT22;40885;53.070;6.228;2022-07-10T04:39:17;14.40;99.90
54986;DHT22;40885;53.070;6.228;2022-07-10T04:41:43;14.40;99.90
54986;DHT22;40885;53.070;6.228;2022-07-10T04:44:10;14.40;99.90
54986;DHT22;40885;53.070;6.228;2022-07-10T04:46:36;14.50;99.90
54986;DHT22;40885;53.070;6.228;2022-07-10T04:49:01;14.50;99.90
54986;DHT22;40885;53.070;6.228;2022-07-10T04:51:27;14.50;99.90
54986;DHT22;40885;53.070;6.228;2022-07-10T04:53:53;14.60;99.90
54986;DHT22;40885;53.070;6.228;2022-07-10T04:56:18;14.60;99.90
54986;DHT22;40885;53.070;6.228;2022-07-10T04:58:44;14.60;99.90
54986;DHT22;40885;53.070;6.228;2022-07-10T05:01:13;14.60;99.90
54986;DHT22;40885;53.070;6.228;2022-07-10T05:03:39;14.60;99.90
54986;DHT22;40885;53.070;6.228;2022-07-10T05:06:05;14.60;99.90
54986;DHT22;40885;53.070;6.228;2022-07-10T05:08:31;14.60;99.90
54986;DHT22;40885;53.070;6.228;2022-07-10T05:10:56;14.60;99.90
54986;DHT22;40885;53.070;6.228;2022-07-10T05:13:22;14.60;99.90
54986;DHT22;40885;53.070;6.228;2022-07-10T05:15:48;14.60;99.90
54986;DHT22;40885;53.070;6.228;2022-07-10T05:18:14;14.60;99.90
54986;DHT22;40885;53.070;6.228;2022-07-10T05:20:39;14.60;99.90
54986;DHT22;40885;53.070;6.228;2022-07-10T05:23:11;14.60;99.90
54986;DHT22;40885;53.070;6.228;2022-07-10T05:25:37;14.60;99.90
54986;DHT22;40885;53.070;6.228;2022-07-10T05:28:04;14.60;99.90
54986;DHT22;40885;53.070;6.228;2022-07-10T05:30:30;14.70;99.90
54986;DHT22;40885;53.070;6.228;2022-07-10T05:32:56;14.70;99.90
54986;DHT22;40885;53.070;6.228;2022-07-10T05:35:22;14.80;99.90
54986;DHT22;40885;53.070;6.228;2022-07-10T05:37:48;14.80;99.90
54986;DHT22;40885;53.070;6.228;2022-07-10T05:40:14;14.80;99.90
54986;DHT22;40885;53.070;6.228;2022-07-10T05:42:40;14.90;99.90
54986;DHT22;40885;53.070;6.228;2022-07-10T05:45:06;14.90;99.90
54986;DHT22;40885;53.070;6.228;2022-07-10T05:47:33;14.90;99.90
54986;DHT22;40885;53.070;6.228;2022-07-10T05:49:59;15.00;99.90
54986;DHT22;40885;53.070;6.228;2022-07-10T05:52:25;15.00;99.90
54986;DHT22;40885;53.070;6.228;2022-07-10T05:54:51;15.00;99.90
54986;DHT22;40885;53.070;6.228;2022-07-10T05:57:17;15.00;99.90
54986;DHT22;40885;53.070;6.228;2022-07-10T05:59:43;15.00;99.90
54986;DHT22;40885;53.070;6.228;2022-07-10T06:02:08;15.00;99.90
54986;DHT22;40885;53.070;6.228;2022-07-10T06:04:34;15.10;99.90
54986;DHT22;40885;53.070;6.228;2022-07-10T06:07:00;15.10;99.90
54986;DHT22;40885;53.070;6.228;2022-07-10T06:09:26;15.10;99.90
54986;DHT22;40885;53.070;6.228;2022-07-10T06:11:51;15.10;99.90
54986;DHT22;40885;53.070;6.228;2022-07-10T06:14:17;15.10;99.90
54986;DHT22;40885;53.070;6.228;2022-07-10T06:16:43;15.10;99.90
54986;DHT22;40885;53.070;6.228;2022-07-10T06:19:09;15.10;99.90
54986;DHT22;40885;53.070;6.228;2022-07-10T06:21:34;15.20;99.90
54986;DHT22;40885;53.070;6.228;2022-07-10T06:24:00;15.10;99.90
54986;DHT22;40885;53.070;6.228;2022-07-10T06:26:26;15.20;99.90
54986;DHT22;40885;53.070;6.228;2022-07-10T06:28:52;15.20;99.90
54986;DHT22;40885;53.070;6.228;2022-07-10T06:31:17;15.20;99.90
54986;DHT22;40885;53.070;6.228;2022-07-10T06:33:43;15.20;99.90
54986;DHT22;40885;53.070;6.228;2022-07-10T06:36:09;15.20;99.90
54986;DHT22;40885;53.070;6.228;2022-07-10T06:38:34;15.20;99.90
54986;DHT22;40885;53.070;6.228;2022-07-10T06:41:00;15.20;99.90
54986;DHT22;40885;53.070;6.228;2022-07-10T06:43:26;15.20;99.90
54986;DHT22;40885;53.070;6.228;2022-07-10T06:45:52;15.20;99.90
54986;DHT22;40885;53.070;6.228;2022-07-10T06:48:18;15.20;99.90
54986;DHT22;40885;53.070;6.228;2022-07-10T06:50:45;15.30;99.90
54986;DHT22;40885;53.070;6.228;2022-07-10T06:53:11;15.20;99.90
54986;DHT22;40885;53.070;6.228;2022-07-10T06:55:38;15.20;99.90
54986;DHT22;40885;53.070;6.228;2022-07-10T06:58:03;15.20;99.90
54986;DHT22;40885;53.070;6.228;2022-07-10T07:00:29;15.30;99.90
54986;DHT22;40885;53.070;6.228;2022-07-10T07:02:55;15.30;99.90
54986;DHT22;40885;53.070;6.228;2022-07-10T07:05:21;15.30;99.90
54986;DHT22;40885;53.070;6.228;2022-07-10T07:07:47;15.40;99.90
54986;DHT22;40885;53.070;6.228;2022-07-10T07:10:12;15.40;99.90
54986;DHT22;40885;53.070;6.228;2022-07-10T07:12:39;15.40;99.90
54986;DHT22;40885;53.070;6.228;2022-07-10T07:15:05;15.40;99.90
54986;DHT22;40885;53.070;6.228;2022-07-10T07:17:31;15.40;99.90
54986;DHT22;40885;53.070;6.228;2022-07-10T07:20:12;15.40;99.90
54986;DHT22;40885;53.070;6.228;2022-07-10T07:22:56;15.50;99.90
54986;DHT22;40885;53.070;6.228;2022-07-10T07:25:39;15.60;99.90
54986;DHT22;40885;53.070;6.228;2022-07-10T07:28:08;15.60;99.90
54986;DHT22;40885;53.070;6.228;2022-07-10T07:30:35;15.70;99.90
54986;DHT22;40885;53.070;6.228;2022-07-10T07:33:00;15.70;99.90
54986;DHT22;40885;53.070;6.228;2022-07-10T07:35:26;15.80;99.90
54986;DHT22;40885;53.070;6.228;2022-07-10T07:37:52;15.80;99.90
54986;DHT22;40885;53.070;6.228;2022-07-10T07:40:20;15.80;99.90
54986;DHT22;40885;53.070;6.228;2022-07-10T07:42:48;15.80;99.90
54986;DHT22;40885;53.070;6.228;2022-07-10T07:45:14;15.90;99.90
54986;DHT22;40885;53.070;6.228;2022-07-10T07:50:17;15.90;99.90
54986;DHT22;40885;53.070;6.228;2022-07-10T07:52:44;15.90;99.90
54986;DHT22;40885;53.070;6.228;2022-07-10T07:55:11;15.90;99.90
54986;DHT22;40885;53.070;6.228;2022-07-10T07:57:37;15.90;99.90
54986;DHT22;40885;53.070;6.228;2022-07-10T08:00:05;15.90;99.90
54986;DHT22;40885;53.070;6.228;2022-07-10T08:02:32;15.90;99.90
54986;DHT22;40885;53.070;6.228;2022-07-10T08:04:58;15.80;99.90
54986;DHT22;40885;53.070;6.228;2022-07-10T08:07:36;15.70;99.90
54986;DHT22;40885;53.070;6.228;2022-07-10T08:10:03;15.70;99.90
54986;DHT22;40885;53.070;6.228;2022-07-10T08:12:28;15.60;99.90
54986;DHT22;40885;53.070;6.228;2022-07-10T08:14:54;15.50;99.90
54986;DHT22;40885;53.070;6.228;2022-07-10T08:17:20;15.50;99.90
54986;DHT22;40885;53.070;6.228;2022-07-10T08:19:47;15.40;99.90
54986;DHT22;40885;53.070;6.228;2022-07-10T08:22:13;15.40;99.90
54986;DHT22;40885;53.070;6.228;2022-07-10T08:24:39;15.30;99.90
54986;DHT22;40885;53.070;6.228;2022-07-10T08:27:05;15.30;99.90
54986;DHT22;40885;53.070;6.228;2022-07-10T08:29:32;15.20;99.90
54986;DHT22;40885;53.070;6.228;2022-07-10T08:31:57;15.30;99.90
54986;DHT22;40885;53.070;6.228;2022-07-10T08:34:23;15.30;99.90
54986;DHT22;40885;53.070;6.228;2022-07-10T08:36:49;15.30;99.90
54986;DHT22;40885;53.070;6.228;2022-07-10T08:39:15;15.40;99.90
54986;DHT22;40885;53.070;6.228;2022-07-10T08:41:47;15.40;99.90
54986;DHT22;40885;53.070;6.228;2022-07-10T08:44:16;15.50;99.90
54986;DHT22;40885;53.070;6.228;2022-07-10T08:46:46;15.60;99.90
54986;DHT22;40885;53.070;6.228;2022-07-10T08:49:12;15.70;99.90
54986;DHT22;40885;53.070;6.228;2022-07-10T08:52:06;15.80;99.90
54986;DHT22;40885;53.070;6.228;2022-07-10T08:54:33;15.80;99.90
54986;DHT22;40885;53.070;6.228;2022-07-10T08:57:01;15.90;99.90
54986;DHT22;40885;53.070;6.228;2022-07-10T08:59:28;15.90;99.90
54986;DHT22;40885;53.070;6.228;2022-07-10T09:01:54;15.90;99.90
54986;DHT22;40885;53.070;6.228;2022-07-10T09:04:22;16.00;99.90
54986;DHT22;40885;53.070;6.228;2022-07-10T09:06:49;16.00;99.90
54986;DHT22;40885;53.070;6.228;2022-07-10T09:09:15;16.10;99.90
54986;DHT22;40885;53.070;6.228;2022-07-10T09:11:41;16.10;99.90
54986;DHT22;40885;53.070;6.228;2022-07-10T09:14:13;16.00;99.90
54986;DHT22;40885;53.070;6.228;2022-07-10T09:16:41;16.00;99.90
54986;DHT22;40885;53.070;6.228;2022-07-10T09:21:54;16.00;99.90
54986;DHT22;40885;53.070;6.228;2022-07-10T09:24:21;16.00;99.90
54986;DHT22;40885;53.070;6.228;2022-07-10T09:29:21;16.00;99.90
54986;DHT22;40885;53.070;6.228;2022-07-10T09:31:54;16.00;99.90
54986;DHT22;40885;53.070;6.228;2022-07-10T09:37:22;16.00;99.90
54986;DHT22;40885;53.070;6.228;2022-07-10T09:39:52;16.00;99.90
54986;DHT22;40885;53.070;6.228;2022-07-10T09:42:41;16.00;99.90
54986;DHT22;40885;53.070;6.228;2022-07-10T09:47:57;16.00;99.90
54986;DHT22;40885;53.070;6.228;2022-07-10T09:50:32;16.00;99.90
54986;DHT22;40885;53.070;6.228;2022-07-10T09:55:27;15.90;99.90
54986;DHT22;40885;53.070;6.228;2022-07-10T09:57:59;15.90;99.90
54986;DHT22;40885;53.070;6.228;2022-07-10T10:00:31;15.90;99.90
54986;DHT22;40885;53.070;6.228;2022-07-10T10:03:08;15.90;99.90
54986;DHT22;40885;53.070;6.228;2022-07-10T10:05:42;16.00;99.90
54986;DHT22;40885;53.070;6.228;2022-07-10T10:11:16;16.20;99.90
54986;DHT22;40885;53.070;6.228;2022-07-10T10:13:44;16.20;99.90
54986;DHT22;40885;53.070;6.228;2022-07-10T10:16:15;16.40;99.90
54986;DHT22;40885;53.070;6.228;2022-07-10T10:18:42;16.50;99.90
54986;DHT22;40885;53.070;6.228;2022-07-10T10:21:28;16.50;99.90
54986;DHT22;40885;53.070;6.228;2022-07-10T10:23:54;16.70;99.90
54986;DHT22;40885;53.070;6.228;2022-07-10T10:26:22;16.80;99.90
54986;DHT22;40885;53.070;6.228;2022-07-10T10:28:52;16.90;99.90
54986;DHT22;40885;53.070;6.228;2022-07-10T10:31:20;16.90;99.90
54986;DHT22;40885;53.070;6.228;2022-07-10T10:33:46;17.00;99.90
54986;DHT22;40885;53.070;6.228;2022-07-10T10:36:15;17.10;99.90
54986;DHT22;40885;53.070;6.228;2022-07-10T10:39:14;17.00;99.90
54986;DHT22;40885;53.070;6.228;2022-07-10T10:41:54;17.10;99.90
54986;DHT22;40885;53.070;6.228;2022-07-10T10:44:21;17.10;99.90
54986;DHT22;40885;53.070;6.228;2022-07-10T10:49:16;17.40;99.90
54986;DHT22;40885;53.070;6.228;2022-07-10T10:52:04;17.40;99.90
54986;DHT22;40885;53.070;6.228;2022-07-10T10:57:20;17.50;99.90
54986;DHT22;40885;53.070;6.228;2022-07-10T10:59:50;17.40;99.90
54986;DHT22;40885;53.070;6.228;2022-07-10T11:02:36;17.40;99.90
54986;DHT22;40885;53.070;6.228;2022-07-10T11:08:01;17.30;99.90
54986;DHT22;40885;53.070;6.228;2022-07-10T11:10:40;17.20;99.90
54986;DHT22;40885;53.070;6.228;2022-07-10T11:13:14;17.10;99.90
54986;DHT22;40885;53.070;6.228;2022-07-10T11:15:41;17.00;99.90
54986;DHT22;40885;53.070;6.228;2022-07-10T11:18:18;16.90;99.90
54986;DHT22;40885;53.070;6.228;2022-07-10T11:20:52;16.80;99.90
54986;DHT22;40885;53.070;6.228;2022-07-10T11:26:10;16.70;99.90
54986;DHT22;40885;53.070;6.228;2022-07-10T11:28:57;16.70;99.90
54986;DHT22;40885;53.070;6.228;2022-07-10T11:31:25;16.70;99.90
54986;DHT22;40885;53.070;6.228;2022-07-10T11:33:54;16.70;99.90
54986;DHT22;40885;53.070;6.228;2022-07-10T11:36:24;16.70;99.90
54986;DHT22;40885;53.070;6.228;2022-07-10T11:39:08;16.80;99.90
54986;DHT22;40885;53.070;6.228;2022-07-10T11:41:41;16.80;99.90
54986;DHT22;40885;53.070;6.228;2022-07-10T11:44:13;16.80;99.90
54986;DHT22;40885;53.070;6.228;2022-07-10T11:46:39;16.80;99.90
54986;DHT22;40885;53.070;6.228;2022-07-10T11:49:07;16.80;99.90
54986;DHT22;40885;53.070;6.228;2022-07-10T11:51:36;16.80;99.90
54986;DHT22;40885;53.070;6.228;2022-07-10T11:54:04;16.80;99.90
54986;DHT22;40885;53.070;6.228;2022-07-10T11:56:32;16.80;99.90
54986;DHT22;40885;53.070;6.228;2022-07-10T11:58:59;16.80;99.90
54986;DHT22;40885;53.070;6.228;2022-07-10T12:01:26;16.90;99.90
54986;DHT22;40885;53.070;6.228;2022-07-10T12:04:05;16.90;99.90
54986;DHT22;40885;53.070;6.228;2022-07-10T12:06:34;17.00;99.90
54986;DHT22;40885;53.070;6.228;2022-07-10T12:11:32;17.00;99.90
54986;DHT22;40885;53.070;6.228;2022-07-10T12:14:18;17.00;99.90
54986;DHT22;40885;53.070;6.228;2022-07-10T12:16:46;17.10;99.90
54986;DHT22;40885;53.070;6.228;2022-07-10T12:19:15;17.10;99.90
54986;DHT22;40885;53.070;6.228;2022-07-10T12:21:43;17.10;99.90
54986;DHT22;40885;53.070;6.228;2022-07-10T12:24:09;17.10;99.90
54986;DHT22;40885;53.070;6.228;2022-07-10T12:26:39;17.10;99.90
54986;DHT22;40885;53.070;6.228;2022-07-10T12:29:05;17.10;99.90
54986;DHT22;40885;53.070;6.228;2022-07-10T12:31:33;17.10;99.90
54986;DHT22;40885;53.070;6.228;2022-07-10T12:34:02;17.00;99.90
54986;DHT22;40885;53.070;6.228;2022-07-10T12:36:51;17.00;99.90
54986;DHT22;40885;53.070;6.228;2022-07-10T12:39:22;17.00;99.90
54986;DHT22;40885;53.070;6.228;2022-07-10T12:44:42;17.10;99.90
54986;DHT22;40885;53.070;6.228;2022-07-10T12:47:16;17.20;99.90
54986;DHT22;40885;53.070;6.228;2022-07-10T12:52:28;17.10;99.90
54986;DHT22;40885;53.070;6.228;2022-07-10T12:55:13;17.20;99.90
54986;DHT22;40885;53.070;6.228;2022-07-10T12:57:56;17.20;99.90
54986;DHT22;40885;53.070;6.228;2022-07-10T13:00:24;17.20;99.90
54986;DHT22;40885;53.070;6.228;2022-07-10T13:03:03;17.10;99.90
54986;DHT22;40885;53.070;6.228;2022-07-10T13:05:41;17.10;99.90
54986;DHT22;40885;53.070;6.228;2022-07-10T13:08:21;17.20;99.90
54986;DHT22;40885;53.070;6.228;2022-07-10T13:10:55;17.40;99.90
54986;DHT22;40885;53.070;6.228;2022-07-10T13:13:22;17.50;99.90
54986;DHT22;40885;53.070;6.228;2022-07-10T13:15:48;17.60;99.90
54986;DHT22;40885;53.070;6.228;2022-07-10T13:18:25;17.60;99.90
54986;DHT22;40885;53.070;6.228;2022-07-10T13:20:53;17.60;99.90
54986;DHT22;40885;53.070;6.228;2022-07-10T13:23:20;17.60;99.90
54986;DHT22;40885;53.070;6.228;2022-07-10T13:25:57;17.60;99.90
54986;DHT22;40885;53.070;6.228;2022-07-10T13:28:28;17.70;99.90
54986;DHT22;40885;53.070;6.228;2022-07-10T13:30:54;17.70;99.90
54986;DHT22;40885;53.070;6.228;2022-07-10T13:33:20;17.80;99.90
54986;DHT22;40885;53.070;6.228;2022-07-10T13:35:46;17.90;99.90
54986;DHT22;40885;53.070;6.228;2022-07-10T13:38:13;18.10;99.90
54986;DHT22;40885;53.070;6.228;2022-07-10T13:40:39;18.20;99.90
54986;DHT22;40885;53.070;6.228;2022-07-10T13:43:06;18.30;99.90
54986;DHT22;40885;53.070;6.228;2022-07-10T13:45:35;18.40;99.90
54986;DHT22;40885;53.070;6.228;2022-07-10T13:48:09;18.50;99.90
54986;DHT22;40885;53.070;6.228;2022-07-10T13:50:45;18.50;99.90
54986;DHT22;40885;53.070;6.228;2022-07-10T13:53:14;18.60;99.90
54986;DHT22;40885;53.070;6.228;2022-07-10T13:55:40;18.60;99.90
54986;DHT22;40885;53.070;6.228;2022-07-10T13:58:06;18.70;99.90
54986;DHT22;40885;53.070;6.228;2022-07-10T14:00:32;18.70;99.90
54986;DHT22;40885;53.070;6.228;2022-07-10T14:02:58;18.80;99.90
54986;DHT22;40885;53.070;6.228;2022-07-10T14:05:25;18.90;99.90
54986;DHT22;40885;53.070;6.228;2022-07-10T14:07:51;18.90;99.90
54986;DHT22;40885;53.070;6.228;2022-07-10T14:10:17;18.80;99.90
54986;DHT22;40885;53.070;6.228;2022-07-10T14:12:43;18.90;99.90
54986;DHT22;40885;53.070;6.228;2022-07-10T14:15:09;18.90;99.90
54986;DHT22;40885;53.070;6.228;2022-07-10T14:17:35;18.90;99.90
54986;DHT22;40885;53.070;6.228;2022-07-10T14:20:01;19.00;99.90
54986;DHT22;40885;53.070;6.228;2022-07-10T14:22:36;19.00;99.90
54986;DHT22;40885;53.070;6.228;2022-07-10T14:25:06;19.10;99.90
54986;DHT22;40885;53.070;6.228;2022-07-10T14:27:32;19.20;99.90
54986;DHT22;40885;53.070;6.228;2022-07-10T14:29:58;19.30;99.90
54986;DHT22;40885;53.070;6.228;2022-07-10T14:32:24;19.30;99.90
54986;DHT22;40885;53.070;6.228;2022-07-10T14:34:50;19.30;99.90
54986;DHT22;40885;53.070;6.228;2022-07-10T14:37:16;19.30;99.90
54986;DHT22;40885;53.070;6.228;2022-07-10T14:39:43;19.20;99.90
54986;DHT22;40885;53.070;6.228;2022-07-10T14:42:09;19.20;99.90
54986;DHT22;40885;53.070;6.228;2022-07-10T14:44:38;19.20;99.90
54986;DHT22;40885;53.070;6.228;2022-07-10T14:47:04;19.10;99.90
54986;DHT22;40885;53.070;6.228;2022-07-10T14:49:30;19.10;99.90
54986;DHT22;40885;53.070;6.228;2022-07-10T14:51:58;19.10;99.90
54986;DHT22;40885;53.070;6.228;2022-07-10T14:54:24;19.10;99.90
54986;DHT22;40885;53.070;6.228;2022-07-10T14:56:51;19.00;99.90
54986;DHT22;40885;53.070;6.228;2022-07-10T14:59:17;19.00;99.90
54986;DHT22;40885;53.070;6.228;2022-07-10T15:01:42;19.00;99.90
54986;DHT22;40885;53.070;6.228;2022-07-10T15:04:08;19.00;99.90
54986;DHT22;40885;53.070;6.228;2022-07-10T15:06:44;19.00;99.90
54986;DHT22;40885;53.070;6.228;2022-07-10T15:09:10;19.70;99.90
54986;DHT22;40885;53.070;6.228;2022-07-10T15:11:42;19.00;99.90
54986;DHT22;40885;53.070;6.228;2022-07-10T15:14:08;19.00;99.90
54986;DHT22;40885;53.070;6.228;2022-07-10T15:16:34;19.00;99.90
54986;DHT22;40885;53.070;6.228;2022-07-10T15:19:03;19.00;99.90
54986;DHT22;40885;53.070;6.228;2022-07-10T15:21:30;19.00;99.90
54986;DHT22;40885;53.070;6.228;2022-07-10T15:23:56;19.00;99.90
54986;DHT22;40885;53.070;6.228;2022-07-10T15:26:28;19.00;99.90
54986;DHT22;40885;53.070;6.228;2022-07-10T15:28:53;19.00;99.90
54986;DHT22;40885;53.070;6.228;2022-07-10T15:31:33;19.00;99.90
54986;DHT22;40885;53.070;6.228;2022-07-10T15:34:02;19.00;99.90
54986;DHT22;40885;53.070;6.228;2022-07-10T15:36:37;19.00;99.90
54986;DHT22;40885;53.070;6.228;2022-07-10T15:39:03;19.00;99.90
54986;DHT22;40885;53.070;6.228;2022-07-10T15:41:32;18.90;99.90
54986;DHT22;40885;53.070;6.228;2022-07-10T15:43:59;18.90;99.90
54986;DHT22;40885;53.070;6.228;2022-07-10T15:46:34;18.90;99.90
54986;DHT22;40885;53.070;6.228;2022-07-10T15:49:10;18.90;99.90
54986;DHT22;40885;53.070;6.228;2022-07-10T15:51:37;18.80;99.90
54986;DHT22;40885;53.070;6.228;2022-07-10T15:54:03;18.90;99.90
54986;DHT22;40885;53.070;6.228;2022-07-10T15:56:29;18.80;99.90
54986;DHT22;40885;53.070;6.228;2022-07-10T15:58:55;18.80;99.90
54986;DHT22;40885;53.070;6.228;2022-07-10T16:01:20;18.80;99.90
54986;DHT22;40885;53.070;6.228;2022-07-10T16:03:46;18.80;99.90
54986;DHT22;40885;53.070;6.228;2022-07-10T16:06:14;18.80;99.90
54986;DHT22;40885;53.070;6.228;2022-07-10T16:08:39;18.80;99.90
54986;DHT22;40885;53.070;6.228;2022-07-10T16:11:08;18.70;99.90
54986;DHT22;40885;53.070;6.228;2022-07-10T16:13:34;18.70;99.90
54986;DHT22;40885;53.070;6.228;2022-07-10T16:16:00;18.70;99.90
54986;DHT22;40885;53.070;6.228;2022-07-10T16:18:26;18.70;99.90